Time;durP1;ratioP1;P1;durP2;ratioP2;P2;SDS_P1;SDS_P2;PMS_P1;PMS_P2;Temp;Humidity;BMP_temperature;BMP_pressure;BME280_temperature;BME280_humidity;BME280_pressure;Samples;Min_cycle;Max_cycle;Signal;HPM_P1;HPM_P2
2022/03/26 00:01:05;;;;;;;31.60;16.23;;;;;;;3.10;58.53;101440.61;124442;1099;101939;-78
2022/03/26 00:03:37;;;;;;;33.50;17.37;;;;;;;3.06;58.69;101430.77;124479;1099;103115;-79
2022/03/26 00:06:08;;;;;;;35.10;16.93;;;;;;;3.03;58.25;101427.92;124835;1099;104157;-78
2022/03/26 00:08:39;;;;;;;32.77;16.87;;;;;;;3.00;58.14;101432.86;124309;1102;104242;-78
2022/03/26 00:11:09;;;;;;;34.47;17.13;;;;;;;2.98;59.02;101435.33;124453;1102;102829;-79
2022/03/26 00:13:41;;;;;;;32.30;16.40;;;;;;;2.97;58.16;101435.20;124562;1102;104163;-79
2022/03/26 00:16:13;;;;;;;32.67;16.37;;;;;;;2.97;58.32;101430.91;124455;1099;104169;-79
2022/03/26 00:18:43;;;;;;;31.13;16.70;;;;;;;2.98;58.22;101424.06;124406;1099;104047;-79
2022/03/26 00:21:15;;;;;;;33.30;17.40;;;;;;;3.01;58.45;101421.72;124408;1102;104348;-79
2022/03/26 00:23:46;;;;;;;34.80;17.37;;;;;;;3.03;57.60;101418.44;124397;1099;104363;-80
2022/03/26 00:26:15;;;;;;;33.23;16.50;;;;;;;3.04;57.88;101416.78;124440;1099;102273;-80
2022/03/26 00:28:46;;;;;;;32.83;16.33;;;;;;;3.05;58.12;101415.97;125089;1099;104294;-79
2022/03/26 00:31:17;;;;;;;32.87;16.13;;;;;;;3.06;58.12;101413.50;125107;1102;104219;-79
2022/03/26 00:33:48;;;;;;;29.80;15.90;;;;;;;3.07;58.04;101409.25;125174;1099;104303;-79
2022/03/26 00:36:19;;;;;;;31.50;16.33;;;;;;;3.09;57.71;101412.85;125216;1099;102645;-79
2022/03/26 00:38:51;;;;;;;31.60;16.30;;;;;;;3.09;57.90;101411.96;125121;1102;104166;-79
2022/03/26 00:41:23;;;;;;;31.03;16.23;;;;;;;3.03;58.33;101423.63;125839;1098;102197;-78
2022/03/26 00:43:55;;;;;;;31.40;15.97;;;;;;;3.00;58.24;101419.89;125047;1099;102592;-78
2022/03/26 00:46:25;;;;;;;33.77;17.23;;;;;;;2.98;58.13;101418.88;125500;1099;102919;-79
2022/03/26 00:48:56;;;;;;;32.47;16.77;;;;;;;2.95;58.52;101418.62;125057;1099;102666;-79
2022/03/26 00:51:26;;;;;;;31.40;16.43;;;;;;;2.95;58.43;101429.00;124937;1099;104169;-79
2022/03/26 00:53:58;;;;;;;33.40;17.00;;;;;;;2.95;57.92;101413.44;124942;1099;104281;-79
2022/03/26 00:56:29;;;;;;;31.87;16.20;;;;;;;2.98;58.64;101411.98;125021;1098;101920;-79
2022/03/26 00:59:02;;;;;;;32.20;16.93;;;;;;;2.99;58.56;101416.41;124487;1099;104217;-78
2022/03/26 01:01:33;;;;;;;31.77;16.13;;;;;;;3.00;57.64;101414.70;125203;1099;104188;-79
2022/03/26 01:04:02;;;;;;;33.07;16.73;;;;;;;3.01;58.01;101419.13;125058;1099;103321;-79
2022/03/26 01:06:32;;;;;;;35.13;16.70;;;;;;;3.01;58.82;101416.53;125055;1099;102775;-79
2022/03/26 01:09:03;;;;;;;32.93;15.70;;;;;;;3.00;58.53;101412.11;125088;1099;104249;-79
2022/03/26 01:11:34;;;;;;;32.07;16.00;;;;;;;2.99;58.48;101413.81;125213;1099;104184;-78
2022/03/26 01:14:06;;;;;;;31.67;16.67;;;;;;;2.98;58.26;101416.28;125098;1099;104239;-79
2022/03/26 01:16:36;;;;;;;31.83;16.57;;;;;;;2.90;59.03;101420.84;125030;1099;104310;-78
2022/03/26 01:19:16;;;;;;;31.17;16.73;;;;;;;2.81;58.94;101420.09;125045;1099;104231;-79
2022/03/26 01:22:12;;;;;;;32.27;16.43;;;;;;;2.75;58.63;101419.59;125764;1099;101967;-79
2022/03/26 01:25:01;;;;;;;33.05;16.25;;;;;;;2.72;58.08;101414.16;125615;1099;104192;-79
2022/03/26 01:27:39;;;;;;;33.27;16.43;;;;;;;2.66;59.09;101419.73;125795;1099;104166;-79
2022/03/26 01:30:11;;;;;;;33.33;17.43;;;;;;;2.59;58.99;101420.92;125809;1099;104222;-79
2022/03/26 01:32:44;;;;;;;35.77;17.47;;;;;;;2.50;58.80;101426.24;125827;1098;104214;-79
2022/03/26 01:35:14;;;;;;;33.33;16.83;;;;;;;2.46;58.99;101421.61;125870;1099;104159;-80
2022/03/26 01:37:46;;;;;;;33.17;17.17;;;;;;;2.41;59.06;101428.06;125317;1099;102289;-77
2022/03/26 01:40:16;;;;;;;34.03;16.97;;;;;;;2.39;59.23;101426.15;124856;1099;104220;-77
2022/03/26 01:42:47;;;;;;;33.60;17.63;;;;;;;2.36;58.44;101420.72;124858;1099;102781;-77
2022/03/26 01:45:18;;;;;;;33.23;17.73;;;;;;;2.34;58.76;101426.66;124835;1099;104268;-79
2022/03/26 01:47:48;;;;;;;39.67;18.57;;;;;;;2.27;59.07;101426.02;124827;1098;102903;-78
2022/03/26 01:50:18;;;;;;;37.00;18.53;;;;;;;2.22;59.75;101423.05;124851;1099;104183;-79
2022/03/26 01:52:50;;;;;;;32.77;17.07;;;;;;;2.14;59.38;101422.40;124842;1099;102812;-78
2022/03/26 01:55:22;;;;;;;33.23;17.70;;;;;;;2.08;58.83;101414.11;124877;1099;104203;-79
2022/03/26 01:57:54;;;;;;;32.97;17.43;;;;;;;2.04;59.48;101409.48;125163;1099;104173;-79
2022/03/26 02:00:25;;;;;;;33.23;17.57;;;;;;;2.02;59.13;101411.01;125039;1099;102171;-79
2022/03/26 02:02:56;;;;;;;34.83;17.93;;;;;;;2.03;59.01;101418.00;125131;1099;102772;-80
2022/03/26 02:05:28;;;;;;;32.87;16.10;;;;;;;2.01;59.82;101410.88;124677;1099;104176;-79
2022/03/26 02:07:59;;;;;;;33.97;17.80;;;;;;;1.97;59.64;101418.38;125088;1099;104166;-78
2022/03/26 02:10:33;;;;;;;33.63;16.40;;;;;;;1.94;59.58;101412.95;124982;1099;102156;-78
2022/03/26 02:13:04;;;;;;;;;;;;;;;1.89;60.22;101419.42;125089;1099;104185;-79
2022/03/26 02:15:37;;;;;;;34.47;17.43;;;;;;;1.84;59.88;101410.37;124974;1099;103212;-79
2022/03/26 02:18:10;;;;;;;33.27;17.20;;;;;;;1.82;59.96;101414.48;124963;1099;104233;-79
2022/03/26 02:20:41;;;;;;;33.13;17.17;;;;;;;1.80;60.23;101418.64;124711;1099;103264;-79
2022/03/26 02:23:13;;;;;;;35.57;17.57;;;;;;;1.80;60.19;101416.95;124421;1099;104634;-79
2022/03/26 02:25:45;;;;;;;37.50;17.53;;;;;;;1.76;59.89;101414.89;125169;1099;104204;-79
2022/03/26 02:28:16;;;;;;;30.70;15.60;;;;;;;1.72;60.11;101420.57;124916;1099;102519;-79
2022/03/26 02:30:51;;;;;;;33.33;17.20;;;;;;;1.67;60.20;101420.94;125118;1099;102902;-79
2022/03/26 02:33:23;;;;;;;34.60;17.80;;;;;;;1.62;60.67;101420.53;125180;1099;104163;-79
2022/03/26 02:35:54;;;;;;;34.27;18.00;;;;;;;1.59;60.34;101421.20;125094;1099;104195;-79
2022/03/26 02:38:24;;;;;;;34.80;17.67;;;;;;;1.59;59.99;101422.86;125018;1099;104252;-79
2022/03/26 02:40:55;;;;;;;35.90;17.00;;;;;;;1.58;60.68;101416.80;125049;1099;102004;-79
2022/03/26 02:43:25;;;;;;;35.67;17.13;;;;;;;1.58;60.54;101421.07;124975;1099;104169;-79
2022/03/26 02:45:58;;;;;;;35.67;17.50;;;;;;;1.56;60.78;101420.05;125082;1099;104191;-79
2022/03/26 02:48:28;;;;;;;30.40;16.27;;;;;;;1.54;60.63;101418.98;124598;1099;103271;-79
2022/03/26 02:50:59;;;;;;;36.03;16.33;;;;;;;1.54;61.19;101421.56;126157;1098;104255;-79
2022/03/26 02:53:31;;;;;;;33.33;16.00;;;;;;;1.51;61.09;101423.89;125004;1099;103273;-79
2022/03/26 02:56:03;;;;;;;33.87;17.80;;;;;;;1.46;60.70;101422.59;125792;1099;104186;-79
2022/03/26 02:58:33;;;;;;;32.50;16.23;;;;;;;1.42;60.97;101427.50;125811;1098;104179;-79
2022/03/26 03:01:04;;;;;;;33.93;16.67;;;;;;;1.38;61.13;101420.23;125695;1099;102752;-79
2022/03/26 03:03:35;;;;;;;33.33;17.47;;;;;;;1.38;61.34;101411.58;125836;1099;104239;-79
2022/03/26 03:06:06;;;;;;;34.17;17.50;;;;;;;1.34;60.93;101405.25;125891;1099;102777;-78
2022/03/26 03:08:37;;;;;;;31.80;16.80;;;;;;;1.35;60.96;101404.45;125916;1099;102809;-79
2022/03/26 03:11:09;;;;;;;33.63;16.10;;;;;;;1.38;60.84;101403.83;126042;1099;104181;-79
2022/03/26 03:13:39;;;;;;;32.97;16.17;;;;;;;1.39;60.98;101411.71;125828;1099;102872;-79
2022/03/26 03:16:10;;;;;;;33.63;16.17;;;;;;;1.35;61.24;101406.14;125895;1099;102222;-79
2022/03/26 03:18:42;;;;;;;34.23;17.50;;;;;;;1.31;61.17;101404.98;125784;1099;102257;-79
2022/03/26 03:21:14;;;;;;;34.47;16.33;;;;;;;1.28;61.01;101408.95;126001;1099;102141;-79
2022/03/26 03:23:45;;;;;;;34.43;16.60;;;;;;;1.25;60.82;101391.52;125807;1099;102817;-79
2022/03/26 03:26:16;;;;;;;31.27;16.20;;;;;;;1.26;60.89;101401.06;125307;1099;104303;-78
2022/03/26 03:28:46;;;;;;;34.23;16.97;;;;;;;1.24;61.15;101408.69;125855;1098;104182;-79
2022/03/26 03:31:16;;;;;;;34.70;17.90;;;;;;;1.21;60.85;101403.24;125890;1098;104172;-79
2022/03/26 03:33:48;;;;;;;32.20;16.67;;;;;;;1.22;60.82;101399.89;125801;1098;104169;-79
2022/03/26 03:36:19;;;;;;;36.43;16.97;;;;;;;1.23;61.00;101395.63;125795;1098;102784;-79
2022/03/26 03:38:49;;;;;;;34.80;16.93;;;;;;;1.18;61.10;101404.66;125527;1099;103645;-79
2022/03/26 03:41:19;;;;;;;35.33;18.40;;;;;;;1.14;60.95;101392.23;125838;1099;104375;-79
2022/03/26 03:43:49;;;;;;;37.50;18.07;;;;;;;1.11;61.27;101398.06;125924;1098;104249;-79
2022/03/26 03:46:19;;;;;;;37.00;18.67;;;;;;;1.03;61.16;101402.55;125826;1099;102225;-78
2022/03/26 03:48:49;;;;;;;36.70;17.73;;;;;;;0.96;60.93;101396.70;125841;1099;105073;-79
2022/03/26 03:51:21;;;;;;;37.03;18.57;;;;;;;0.91;61.18;101404.05;125775;1099;103075;-79
2022/03/26 03:53:51;;;;;;;34.27;17.70;;;;;;;0.83;61.34;101394.72;125848;1099;104166;-79
2022/03/26 03:56:22;;;;;;;34.03;17.87;;;;;;;0.83;61.46;101407.64;125772;1099;104171;-79
2022/03/26 03:58:51;;;;;;;32.90;16.33;;;;;;;0.84;61.07;101396.52;124550;1098;104238;-79
2022/03/26 04:01:23;;;;;;;34.93;17.43;;;;;;;0.82;61.78;101400.65;125168;1099;104086;-79
2022/03/26 04:03:56;;;;;;;35.67;17.03;;;;;;;0.80;61.85;101400.52;125063;1099;104185;-79
2022/03/26 04:06:26;;;;;;;32.50;16.30;;;;;;;0.78;61.64;101414.98;125010;1099;102785;-79
2022/03/26 04:08:57;;;;;;;29.27;16.10;;;;;;;0.76;62.20;101407.85;125100;1099;102759;-79
2022/03/26 04:11:27;;;;;;;31.67;16.53;;;;;;;0.74;61.77;101402.55;125002;1099;111606;-79
2022/03/26 04:13:57;;;;;;;33.50;16.43;;;;;;;0.78;61.53;101406.30;125184;1099;104329;-79
2022/03/26 04:16:28;;;;;;;32.13;15.57;;;;;;;0.84;61.24;101406.85;124990;1099;105112;-79
2022/03/26 04:18:58;;;;;;;32.13;16.57;;;;;;;0.88;60.94;101402.09;124933;1099;103646;-79
2022/03/26 04:21:30;;;;;;;32.37;16.30;;;;;;;0.91;61.25;101393.72;124490;1102;104300;-79
2022/03/26 04:24:04;;;;;;;32.30;16.23;;;;;;;0.97;61.67;101396.84;124413;1102;104237;-79
2022/03/26 04:26:37;;;;;;;31.80;15.97;;;;;;;1.05;61.41;101400.11;124359;1102;104201;-78
2022/03/26 04:29:07;;;;;;;32.50;16.35;;;;;;;1.11;61.66;101395.47;124293;1102;102468;-79
2022/03/26 04:31:38;;;;;;;30.57;14.97;;;;;;;1.16;61.51;101398.47;124290;1099;104262;-78
2022/03/26 04:34:08;;;;;;;34.10;16.70;;;;;;;1.17;61.52;101395.08;124433;1099;102987;-80
2022/03/26 04:36:39;;;;;;;31.57;15.03;;;;;;;1.20;61.45;101391.11;124473;1102;104405;-79
2022/03/26 04:39:12;;;;;;;32.30;16.27;;;;;;;1.27;61.61;101379.61;124577;1099;104348;-79
2022/03/26 04:41:43;;;;;;;30.67;16.50;;;;;;;1.31;61.32;101385.95;125098;1099;102795;-79
2022/03/26 04:44:14;;;;;;;34.17;15.80;;;;;;;1.31;61.76;101399.81;124836;1099;104239;-79
2022/03/26 04:46:43;;;;;;;31.70;15.50;;;;;;;1.28;62.24;101393.44;124942;1099;104278;-79
2022/03/26 04:49:16;;;;;;;30.03;15.17;;;;;;;1.22;62.04;101399.89;124475;1102;104396;-79
2022/03/26 04:51:47;;;;;;;28.20;14.87;;;;;;;1.20;62.08;101401.45;124585;1099;104265;-78
2022/03/26 04:54:19;;;;;;;34.55;16.50;;;;;;;1.18;62.39;101397.80;124785;1099;104160;-78
2022/03/26 04:56:50;;;;;;;33.23;16.90;;;;;;;1.15;62.36;101405.29;124731;1099;104051;-78
2022/03/26 04:59:21;;;;;;;31.50;14.87;;;;;;;1.15;62.25;101405.29;124842;1099;104663;-78
2022/03/26 05:01:52;;;;;;;32.10;16.40;;;;;;;1.12;61.76;101397.27;124889;1099;104220;-78
2022/03/26 05:04:27;;;;;;;33.37;15.57;;;;;;;1.13;62.11;101398.20;124841;1099;104214;-78
2022/03/26 05:06:57;;;;;;;34.83;16.43;;;;;;;1.18;62.51;101396.91;124908;1099;102221;-79
2022/03/26 05:09:28;;;;;;;30.07;15.60;;;;;;;1.23;62.34;101396.55;124911;1099;102615;-79
2022/03/26 05:11:59;;;;;;;35.17;16.30;;;;;;;1.32;62.27;101388.67;124840;1099;105455;-78
2022/03/26 05:14:28;;;;;;;30.73;15.30;;;;;;;1.44;62.00;101388.84;124955;1099;104192;-78
2022/03/26 05:16:58;;;;;;;29.35;15.10;;;;;;;1.55;62.21;101384.59;124905;1099;104162;-79
2022/03/26 05:19:28;;;;;;;32.90;15.83;;;;;;;1.61;62.02;101392.87;124882;1098;104249;-78
2022/03/26 05:21:58;;;;;;;30.67;15.67;;;;;;;1.69;62.08;101394.43;124775;1099;104205;-78
2022/03/26 05:24:29;;;;;;;34.17;15.70;;;;;;;1.83;62.14;101392.13;124834;1099;104322;-78
2022/03/26 05:27:00;;;;;;;35.67;17.20;;;;;;;1.95;62.34;101382.81;124811;1098;104229;-78
2022/03/26 05:29:30;;;;;;;32.33;16.60;;;;;;;2.09;62.29;101391.73;124801;1099;104366;-78
2022/03/26 05:32:04;;;;;;;34.03;16.40;;;;;;;2.23;61.94;101390.27;124742;1099;102135;-78
2022/03/26 05:34:35;;;;;;;34.67;16.70;;;;;;;2.35;62.22;101391.30;124774;1099;102749;-78
2022/03/26 05:37:06;;;;;;;32.20;15.73;;;;;;;2.46;62.38;101392.18;124791;1099;103072;-78
2022/03/26 05:39:36;;;;;;;35.30;17.50;;;;;;;2.55;61.85;101399.81;124862;1099;102761;-78
2022/03/26 05:42:09;;;;;;;32.33;16.37;;;;;;;2.65;61.83;101399.77;124862;1099;104163;-78
2022/03/26 05:44:40;;;;;;;32.43;16.47;;;;;;;2.74;62.39;101392.75;124796;1099;102771;-77
2022/03/26 05:47:10;;;;;;;33.90;16.73;;;;;;;2.85;61.90;101399.73;124714;1099;104771;-78
2022/03/26 05:49:40;;;;;;;31.60;16.50;;;;;;;2.97;61.50;101393.72;124836;1099;102255;-78
2022/03/26 05:52:12;;;;;;;36.80;16.55;;;;;;;3.08;62.28;101387.69;124492;1099;104169;-78
2022/03/26 05:54:43;;;;;;;31.60;16.60;;;;;;;3.22;61.56;101383.61;124867;1099;104184;-78
2022/03/26 05:57:14;;;;;;;36.00;17.43;;;;;;;3.34;61.60;101384.58;124820;1099;102935;-78
2022/03/26 05:59:46;;;;;;;31.27;15.87;;;;;;;3.46;62.37;101381.12;124837;1099;104353;-78
2022/03/26 06:02:17;;;;;;;33.77;16.70;;;;;;;3.59;61.99;101383.91;124754;1099;104162;-78
2022/03/26 06:04:49;;;;;;;32.73;16.70;;;;;;;3.73;61.44;101382.38;124868;1099;104163;-78
2022/03/26 06:07:18;;;;;;;34.03;18.63;;;;;;;3.83;61.99;101383.98;124823;1099;104242;-78
2022/03/26 06:09:49;;;;;;;36.40;17.30;;;;;;;3.88;61.63;101380.04;124866;1099;104272;-78
2022/03/26 06:12:20;;;;;;;38.00;17.87;;;;;;;3.99;61.22;101384.39;124844;1099;102551;-78
2022/03/26 06:14:54;;;;;;;31.33;15.67;;;;;;;4.10;61.48;101387.80;124888;1099;102431;-78
2022/03/26 06:17:27;;;;;;;33.37;15.80;;;;;;;4.21;61.00;101393.81;124877;1098;104187;-78
2022/03/26 06:19:58;;;;;;;30.63;15.63;;;;;;;4.28;61.13;101394.36;124918;1098;104175;-79
2022/03/26 06:22:30;;;;;;;34.55;15.80;;;;;;;4.39;61.24;101397.77;124892;1099;104334;-78
2022/03/26 06:25:00;;;;;;;32.90;15.53;;;;;;;4.49;60.81;101400.27;124865;1099;104185;-78
2022/03/26 06:27:32;;;;;;;33.63;15.67;;;;;;;4.59;60.90;101403.55;124858;1099;104369;-78
2022/03/26 06:30:02;;;;;;;31.43;15.97;;;;;;;4.67;60.54;101400.74;124438;1099;104188;-78
2022/03/26 06:32:35;;;;;;;32.30;15.60;;;;;;;4.75;60.71;101397.78;124831;1099;101902;-79
2022/03/26 06:35:07;;;;;;;32.10;15.90;;;;;;;4.88;60.71;101390.09;125172;1098;104252;-78
2022/03/26 06:37:38;;;;;;;30.67;15.80;;;;;;;4.99;60.31;101398.69;124919;1099;104258;-78
2022/03/26 06:40:13;;;;;;;34.57;15.93;;;;;;;5.12;60.16;101393.55;124862;1099;104159;-78
2022/03/26 06:42:45;;;;;;;30.70;15.23;;;;;;;5.25;59.82;101395.36;124842;1099;104287;-78
2022/03/26 06:45:16;;;;;;;28.57;15.17;;;;;;;5.37;59.91;101396.20;124937;1099;104163;-78
2022/03/26 06:47:48;;;;;;;30.60;14.47;;;;;;;5.54;59.58;101383.48;124506;1102;102781;-78
2022/03/26 06:50:18;;;;;;;27.43;13.53;;;;;;;5.68;59.72;101380.13;124905;1098;104173;-78
2022/03/26 06:52:49;;;;;;;33.17;14.23;;;;;;;5.81;59.65;101384.48;124867;1099;104239;-79
2022/03/26 06:55:20;;;;;;;30.80;14.37;;;;;;;5.96;58.95;101378.53;124793;1099;102838;-79
2022/03/26 06:57:51;;;;;;;30.87;15.23;;;;;;;6.10;59.38;101380.41;124983;1099;104293;-78
2022/03/26 07:00:21;;;;;;;29.10;14.20;;;;;;;6.26;58.55;101383.26;124995;1099;102874;-78
2022/03/26 07:02:51;;;;;;;26.65;13.70;;;;;;;6.37;59.04;101378.73;124944;1099;101841;-79
2022/03/26 07:05:22;;;;;;;29.07;14.67;;;;;;;6.52;58.61;101373.64;124912;1099;102830;-79
2022/03/26 07:07:52;;;;;;;29.93;15.23;;;;;;;6.66;58.26;101380.66;124425;1099;104172;-78
2022/03/26 07:10:23;;;;;;;29.80;14.40;;;;;;;6.79;58.42;101381.47;124934;1099;104217;-78
2022/03/26 07:12:53;;;;;;;28.43;14.23;;;;;;;6.91;58.30;101386.59;124826;1099;102689;-78
2022/03/26 07:15:24;;;;;;;27.47;14.63;;;;;;;7.01;58.13;101382.06;124941;1098;104322;-78
2022/03/26 07:17:56;;;;;;;28.87;14.73;;;;;;;7.16;58.19;101376.89;124967;1099;104235;-78
2022/03/26 07:20:27;;;;;;;30.97;16.13;;;;;;;7.34;58.13;101371.95;124962;1098;104187;-78
2022/03/26 07:22:56;;;;;;;35.23;16.27;;;;;;;7.57;57.31;101375.06;125029;1099;102495;-79
2022/03/26 07:25:27;;;;;;;32.53;15.17;;;;;;;7.76;57.64;101373.59;124938;1099;104383;-79
2022/03/26 07:27:58;;;;;;;31.30;14.50;;;;;;;7.89;57.08;101373.53;124550;1099;102453;-78
2022/03/26 07:30:28;;;;;;;30.60;15.23;;;;;;;8.04;56.65;101370.92;124861;1099;104169;-78
2022/03/26 07:33:00;;;;;;;30.43;14.80;;;;;;;8.23;56.49;101371.22;124907;1099;104281;-78
2022/03/26 07:35:30;;;;;;;29.50;14.80;;;;;;;8.42;57.08;101364.45;124990;1099;102538;-78
2022/03/26 07:38:00;;;;;;;30.73;14.83;;;;;;;8.60;56.51;101364.63;124495;1099;104386;-78
2022/03/26 07:40:32;;;;;;;29.30;13.80;;;;;;;8.79;56.56;101358.76;124805;1099;104236;-79
2022/03/26 07:43:04;;;;;;;29.37;14.00;;;;;;;8.97;55.82;101354.52;124478;1102;102509;-79
2022/03/26 07:45:35;;;;;;;27.10;13.23;;;;;;;9.19;55.07;101353.09;124856;1099;112603;-79
2022/03/26 07:48:08;;;;;;;25.93;14.00;;;;;;;9.44;54.31;101341.34;124931;1099;104195;-79
2022/03/26 07:50:42;;;;;;;26.23;13.13;;;;;;;9.60;54.68;101330.88;124911;1099;104626;-78
2022/03/26 07:53:13;;;;;;;25.50;12.17;;;;;;;9.75;54.71;101329.87;124441;1099;104252;-78
2022/03/26 07:55:46;;;;;;;24.40;12.20;;;;;;;9.89;54.46;101321.91;124922;1099;104238;-78
2022/03/26 07:58:17;;;;;;;24.87;11.57;;;;;;;10.08;54.98;101320.20;124936;1099;102900;-78
2022/03/26 08:00:49;;;;;;;26.00;12.80;;;;;;;10.29;53.84;101315.15;124974;1099;102155;-78
2022/03/26 08:03:20;;;;;;;27.97;13.43;;;;;;;10.45;53.11;101306.34;124483;1099;102288;-78
2022/03/26 08:05:51;;;;;;;26.83;12.77;;;;;;;10.59;53.55;101299.14;124840;1099;102029;-78
2022/03/26 08:08:21;;;;;;;26.10;12.27;;;;;;;10.74;53.19;101307.75;125694;1099;102225;-78
2022/03/26 08:10:53;;;;;;;23.67;11.97;;;;;;;10.96;52.25;101295.65;124878;1098;104213;-78
2022/03/26 08:13:25;;;;;;;21.80;10.93;;;;;;;11.17;52.40;101303.61;124538;1102;102275;-78
2022/03/26 08:15:56;;;;;;;23.33;11.30;;;;;;;11.33;50.32;101294.72;124887;1099;101992;-78
2022/03/26 08:18:27;;;;;;;23.40;11.17;;;;;;;11.44;50.46;101296.09;124772;1099;102787;-78
2022/03/26 08:20:58;;;;;;;26.43;11.77;;;;;;;11.45;48.92;101292.65;125707;1099;104264;-78
2022/03/26 08:23:29;;;;;;;21.80;11.33;;;;;;;11.51;49.37;101286.74;125174;1099;102659;-78
2022/03/26 08:28:48;;;;;;;22.73;10.27;;;;;;;11.76;47.70;101277.31;124415;1099;104398;-78
2022/03/26 08:31:20;;;;;;;19.80;9.40;;;;;;;11.86;46.95;101280.41;124871;1098;104427;-77
2022/03/26 08:33:51;;;;;;;23.57;10.53;;;;;;;12.02;47.25;101286.35;124772;1099;104229;-78
2022/03/26 08:36:23;;;;;;;20.90;10.03;;;;;;;12.12;45.15;101280.63;124832;1099;104163;-79
2022/03/26 08:38:57;;;;;;;20.83;10.03;;;;;;;12.24;46.11;101274.98;124905;1098;102791;-78
2022/03/26 08:41:27;;;;;;;18.62;9.63;;;;;;;12.35;46.55;101275.43;124872;1099;103144;-78
2022/03/26 08:43:57;;;;;;;23.43;10.30;;;;;;;12.44;46.42;101267.91;125720;1099;104153;-78
2022/03/26 08:46:27;;;;;;;22.00;10.73;;;;;;;12.53;44.10;101268.28;125683;1099;104171;-78
2022/03/26 08:48:59;;;;;;;23.53;10.33;;;;;;;12.61;44.89;101254.53;125155;1099;104291;-79
2022/03/26 08:51:29;;;;;;;24.30;9.90;;;;;;;12.64;43.70;101252.91;124946;1099;102778;-78
2022/03/26 08:54:01;;;;;;;20.50;10.27;;;;;;;12.74;44.74;101246.26;124921;1099;104156;-78
2022/03/26 08:56:33;;;;;;;22.00;10.73;;;;;;;12.87;44.32;101242.34;124416;1102;104163;-79
2022/03/26 08:59:06;;;;;;;21.97;11.33;;;;;;;12.90;42.57;101235.48;124898;1099;102032;-78
2022/03/26 09:01:36;;;;;;;25.87;10.77;;;;;;;12.97;43.28;101235.72;124947;1098;104159;-78
2022/03/26 09:04:11;;;;;;;22.13;10.27;;;;;;;13.02;42.26;101226.23;124903;1099;104159;-77
2022/03/26 09:06:43;;;;;;;22.57;10.40;;;;;;;13.10;41.41;101223.06;124447;1099;104287;-77
2022/03/26 09:09:15;;;;;;;22.10;11.10;;;;;;;13.18;41.82;101215.41;124351;1099;104326;-78
2022/03/26 09:11:48;;;;;;;22.83;10.07;;;;;;;13.26;40.94;101216.61;124452;1099;104296;-77
2022/03/26 09:14:19;;;;;;;23.17;9.97;;;;;;;13.32;40.92;101213.27;124674;1099;104309;-78
2022/03/26 09:16:50;;;;;;;22.00;10.37;;;;;;;13.39;41.28;101206.53;124801;1098;104175;-78
2022/03/26 09:19:20;;;;;;;24.20;10.20;;;;;;;13.50;42.49;101196.37;124847;1099;104163;-78
2022/03/26 09:21:53;;;;;;;24.50;10.83;;;;;;;13.61;41.56;101195.87;124418;1099;102327;-78
2022/03/26 09:24:25;;;;;;;21.47;10.73;;;;;;;13.71;39.71;101198.83;125721;1099;104251;-79
2022/03/26 09:26:56;;;;;;;24.67;10.57;;;;;;;13.73;39.43;101191.86;124830;1099;102250;-78
2022/03/26 09:29:29;;;;;;;22.43;11.33;;;;;;;13.77;40.13;101194.66;124782;1099;104226;-78
2022/03/26 09:32:02;;;;;;;23.07;11.37;;;;;;;13.87;41.02;101185.33;124410;1099;104304;-78
2022/03/26 09:34:32;;;;;;;20.50;9.67;;;;;;;13.92;39.80;101180.20;124840;1099;104179;-78
2022/03/26 09:37:02;;;;;;;21.73;9.83;;;;;;;13.96;39.64;101176.80;124827;1099;104261;-78
2022/03/26 09:39:34;;;;;;;20.10;9.63;;;;;;;14.01;39.02;101176.11;124389;1100;103197;-78
2022/03/26 09:42:08;;;;;;;20.70;9.60;;;;;;;14.03;39.65;101168.25;124871;1099;104168;-78
2022/03/26 09:44:38;;;;;;;21.80;10.07;;;;;;;14.13;39.06;101172.07;125765;1099;101921;-78
2022/03/26 09:47:15;;;;;;;20.90;9.77;;;;;;;14.15;37.56;101162.48;124824;1099;103274;-78
2022/03/26 09:49:44;;;;;;;21.23;10.13;;;;;;;14.18;37.14;101157.30;124968;1099;104172;-78
2022/03/26 09:52:16;;;;;;;24.63;10.93;;;;;;;14.27;38.13;101156.67;124953;1099;102148;-78
2022/03/26 09:54:47;;;;;;;24.67;10.03;;;;;;;14.36;38.57;101142.00;125058;1099;103244;-79
2022/03/26 09:57:18;;;;;;;19.17;9.53;;;;;;;14.43;37.53;101136.91;124831;1098;104275;-78
2022/03/26 09:59:50;;;;;;;20.40;10.13;;;;;;;14.53;37.66;101149.55;124412;1102;102344;-78
2022/03/26 10:02:23;;;;;;;21.23;10.17;;;;;;;14.59;37.91;101133.88;124884;1099;102381;-78
2022/03/26 10:04:53;;;;;;;19.50;9.57;;;;;;;14.65;38.18;101142.02;124891;1099;104345;-78
2022/03/26 10:07:31;;;;;;;19.30;9.03;;;;;;;14.70;37.56;101127.20;125722;1099;104163;-78
2022/03/26 10:10:04;;;;;;;21.00;9.93;;;;;;;14.77;37.96;101125.61;125060;1098;102289;-79
2022/03/26 10:12:35;;;;;;;20.10;9.63;;;;;;;14.82;37.25;101121.37;124996;1099;104201;-76
2022/03/26 10:15:09;;;;;;;19.40;9.50;;;;;;;14.90;38.04;101109.27;124980;1099;102422;-76
2022/03/26 10:17:39;;;;;;;18.60;8.28;;;;;;;14.91;36.76;101108.42;124916;1099;104194;-76
2022/03/26 10:20:12;;;;;;;18.90;9.00;;;;;;;14.93;37.57;101084.69;124845;1099;102987;-76
2022/03/26 10:22:43;;;;;;;19.77;9.27;;;;;;;15.02;38.14;101082.30;124365;1102;104296;-76
2022/03/26 10:25:16;;;;;;;19.37;8.90;;;;;;;15.17;37.96;101080.91;124347;1099;102669;-76
2022/03/26 10:27:50;;;;;;;16.67;7.60;;;;;;;15.23;35.79;101084.59;124847;1099;104230;-76
2022/03/26 10:32:39;;;;;;;19.25;8.20;;;;;;;15.21;36.40;101080.14;125122;1099;104156;-78
2022/03/26 10:33:24;;;;;;;18.10;7.33;;;;;;;15.24;36.65;101072.29;124897;1099;104262;-78
2022/03/26 10:36:00;;;;;;;18.67;8.43;;;;;;;15.27;36.37;101059.15;124825;1099;104214;-76
2022/03/26 10:38:31;;;;;;;18.30;8.00;;;;;;;15.33;36.52;101048.70;124462;1098;102490;-76
2022/03/26 10:41:05;;;;;;;18.20;7.53;;;;;;;15.35;35.19;101048.73;124367;1102;102245;-76
2022/03/26 10:43:37;;;;;;;18.73;7.97;;;;;;;15.36;37.04;101045.25;124408;1102;104349;-76
2022/03/26 10:46:08;;;;;;;19.13;8.17;;;;;;;15.39;36.75;101037.39;124343;1102;104153;-77
2022/03/26 10:48:39;;;;;;;23.27;8.37;;;;;;;15.41;36.41;101039.23;124258;1102;103162;-76
2022/03/26 10:51:13;;;;;;;20.23;8.47;;;;;;;15.44;34.98;101039.30;124343;1102;102134;-76
2022/03/26 10:53:44;;;;;;;17.32;8.38;;;;;;;15.47;36.57;101038.46;124458;1102;104248;-76
2022/03/26 10:56:16;;;;;;;19.83;9.00;;;;;;;15.51;35.06;101028.88;124319;1102;104166;-76
2022/03/26 10:58:47;;;;;;;20.90;9.23;;;;;;;15.45;34.83;101022.55;124461;1099;104265;-76
2022/03/26 11:01:18;;;;;;;17.57;8.80;;;;;;;15.42;34.32;101022.48;124922;1099;102947;-76
2022/03/26 11:03:51;;;;;;;19.00;8.67;;;;;;;15.40;33.64;101015.39;124948;1099;102263;-75
2022/03/26 11:06:27;;;;;;;20.65;8.83;;;;;;;15.36;34.24;101003.82;124946;1099;104060;-76
2022/03/26 11:09:00;;;;;;;17.47;8.57;;;;;;;15.38;35.49;100995.92;124952;1099;104163;-76
2022/03/26 11:11:35;;;;;;;24.00;11.28;;;;;;;15.43;35.05;101005.77;124614;1099;104380;-76
2022/03/26 11:14:13;;;;;;;24.30;11.67;;;;;;;15.49;35.07;100997.09;125168;1099;104163;-78
2022/03/26 11:17:06;;;;;;;22.30;11.43;;;;;;;15.50;35.11;100992.69;124739;1099;104538;-79
2022/03/26 11:20:01;;;;;;;21.73;10.53;;;;;;;15.52;34.96;100988.32;125278;1098;101773;-79
2022/03/26 11:22:45;;;;;;;21.10;9.73;;;;;;;15.56;35.00;100983.14;125172;1099;104175;-78